Time;durP1;ratioP1;P1;durP2;ratioP2;P2;SDS_P1;SDS_P2;PMS_P1;PMS_P2;Temp;Humidity;BMP_temperature;BMP_pressure;BME280_temperature;BME280_humidity;BME280_pressure;Samples;Min_cycle;Max_cycle;Signal;HPM_P1;HPM_P2
2022/10/18 00:00:32;;;;;;;;;;;23.40;56.00;;;;;;1554417;74;1391;-55
2022/10/18 00:02:34;;;;;;;;;;;23.40;56.00;;;;;;1555031;74;1943;-52
2022/10/18 00:04:36;;;;;;;;;;;23.40;56.00;;;;;;1553573;74;748;-55
2022/10/18 00:06:37;;;;;;;;;;;23.50;56.10;;;;;;1555337;74;1139;-56
2022/10/18 00:08:39;;;;;;;;;;;23.50;56.00;;;;;;1553439;75;770;-55
2022/10/18 00:10:41;;;;;;;;;;;23.50;55.90;;;;;;1551764;74;873;-55
2022/10/18 00:12:43;;;;;;;;;;;23.50;55.80;;;;;;1557090;74;780;-55
2022/10/18 00:14:46;;;;;;;;;;;23.50;55.70;;;;;;1553346;74;1556;-54
2022/10/18 00:16:48;;;;;;;;;;;23.60;55.70;;;;;;1556370;74;1073;-55
2022/10/18 00:18:50;;;;;;;;;;;23.50;55.60;;;;;;1558349;74;759;-56
2022/10/18 00:21:00;;;;;;;;;;;23.60;55.70;;;;;;1557050;74;713;-55
2022/10/18 00:23:01;;;;;;;;;;;23.50;55.70;;;;;;1556901;74;1934;-53
2022/10/18 00:25:04;;;;;;;;;;;23.50;55.80;;;;;;1552112;74;1143;-53
2022/10/18 00:27:06;;;;;;;;;;;23.50;55.80;;;;;;1557612;74;708;-53
2022/10/18 00:29:09;;;;;;;;;;;23.50;55.70;;;;;;1558975;74;1743;-56
2022/10/18 00:31:13;;;;;;;;;;;23.50;55.70;;;;;;1555557;74;1116;-54
2022/10/18 00:33:15;;;;;;;;;;;23.50;55.70;;;;;;1554285;75;772;-55
2022/10/18 00:35:16;;;;;;;;;;;23.50;55.80;;;;;;1552780;74;1152;-54
2022/10/18 00:37:18;;;;;;;;;;;23.50;55.80;;;;;;1559667;74;784;-54
2022/10/18 00:39:20;;;;;;;;;;;23.50;55.80;;;;;;1554103;74;715;-56
2022/10/18 00:41:27;;;;;;;;;;;23.50;55.90;;;;;;1549543;74;1306;-56
2022/10/18 00:43:29;;;;;;;;;;;23.50;55.90;;;;;;1552249;75;1935;-55
2022/10/18 00:45:30;;;;;;;;;;;23.50;55.80;;;;;;1544170;74;1127;-55
2022/10/18 00:47:32;;;;;;;;;;;23.60;55.90;;;;;;1557074;74;723;-55
2022/10/18 00:49:36;;;;;;;;;;;23.50;55.90;;;;;;1557109;74;657;-55
2022/10/18 00:51:43;;;;;;;;;;;23.50;55.80;;;;;;1556118;74;1790;-53
2022/10/18 00:53:45;;;;;;;;;;;23.50;55.80;;;;;;1553894;74;698;-55
2022/10/18 00:55:46;;;;;;;;;;;23.50;55.90;;;;;;1551118;74;1579;-56
2022/10/18 00:57:48;;;;;;;;;;;23.50;55.80;;;;;;1553009;74;680;-54
2022/10/18 00:59:50;;;;;;;;;;;23.60;55.80;;;;;;1549336;74;741;-51
2022/10/18 01:01:52;;;;;;;;;;;23.70;55.70;;;;;;1546731;74;784;-55
2022/10/18 01:03:54;;;;;;;;;;;23.60;55.50;;;;;;1559782;74;1938;-56
2022/10/18 01:05:56;;;;;;;;;;;23.60;55.50;;;;;;1561073;74;1187;-56
2022/10/18 01:08:11;;;;;;;;;;;23.60;55.50;;;;;;1557757;74;700;-55
2022/10/18 01:10:18;;;;;;;;;;;23.70;55.60;;;;;;1558459;74;1362;-53
2022/10/18 01:12:39;;;;;;;;;;;23.60;55.40;;;;;;1551518;74;750;-55
2022/10/18 01:14:48;;;;;;;;;;;23.60;55.50;;;;;;1557792;74;1873;-53
2022/10/18 01:16:55;;;;;;;;;;;23.60;55.50;;;;;;1561212;74;1046;-51
2022/10/18 01:19:01;;;;;;;;;;;23.60;55.60;;;;;;1564384;74;830;-55
2022/10/18 01:21:20;;;;;;;;;;;23.60;55.60;;;;;;1558766;74;697;-56
2022/10/18 01:23:26;;;;;;;;;;;23.60;55.70;;;;;;1553861;74;1932;-56
2022/10/18 01:25:39;;;;;;;;;;;23.50;55.70;;;;;;1559393;74;1852;-52
2022/10/18 01:27:45;;;;;;;;;;;23.50;55.80;;;;;;1559711;74;752;-55
2022/10/18 01:30:04;;;;;;;;;;;23.50;55.80;;;;;;1562988;74;701;-51
2022/10/18 01:32:10;;;;;;;;;;;23.50;55.80;;;;;;1558304;74;722;-56
2022/10/18 01:34:13;;;;;;;;;;;23.50;55.90;;;;;;1568084;74;1791;-56
2022/10/18 01:36:22;;;;;;;;;;;23.50;55.80;;;;;;1543477;74;1146;-56
2022/10/18 01:38:24;;;;;;;;;;;23.50;55.90;;;;;;1555719;74;1533;-56
2022/10/18 01:40:26;;;;;;;;;;;23.50;55.90;;;;;;1554790;74;849;-55
2022/10/18 01:42:28;;;;;;;;;;;23.50;55.90;;;;;;1556405;74;1952;-55
2022/10/18 01:44:30;;;;;;;;;;;23.50;55.80;;;;;;1548045;74;727;-53
2022/10/18 01:46:32;;;;;;;;;;;23.50;55.80;;;;;;1560985;75;1148;-53
2022/10/18 01:48:36;;;;;;;;;;;23.50;55.80;;;;;;1548778;74;729;-53
2022/10/18 01:50:37;;;;;;;;;;;23.50;55.80;;;;;;1561333;74;1515;-55
2022/10/18 01:52:50;;;;;;;;;;;23.50;55.80;;;;;;1546859;74;1515;-55
2022/10/18 01:54:52;;;;;;;;;;;23.50;55.90;;;;;;1557901;74;1583;-55
2022/10/18 01:57:00;;;;;;;;;;;23.50;55.80;;;;;;1557176;74;1109;-55
2022/10/18 01:59:13;;;;;;;;;;;23.50;55.90;;;;;;1557503;74;667;-56
2022/10/18 02:01:19;;;;;;;;;;;23.50;55.90;;;;;;1560902;74;977;-55
2022/10/18 02:03:22;;;;;;;;;;;23.50;56.00;;;;;;1559487;74;1942;-53
2022/10/18 02:05:28;;;;;;;;;;;23.50;55.90;;;;;;1560665;75;1176;-55
2022/10/18 02:07:35;;;;;;;;;;;23.50;55.80;;;;;;1562002;74;1452;-54
2022/10/18 02:09:38;;;;;;;;;;;23.50;55.70;;;;;;1565744;75;806;-55
2022/10/18 02:11:40;;;;;;;;;;;23.50;55.80;;;;;;1562675;75;723;-53
2022/10/18 02:13:43;;;;;;;;;;;23.50;55.80;;;;;;1556943;75;740;-54
2022/10/18 02:15:45;;;;;;;;;;;23.50;55.80;;;;;;1560231;74;1143;-56
2022/10/18 02:17:47;;;;;;;;;;;23.50;55.80;;;;;;1567268;75;677;-56
2022/10/18 02:19:50;;;;;;;;;;;23.50;55.80;;;;;;1556644;75;1571;-53
2022/10/18 02:21:52;;;;;;;;;;;23.50;55.70;;;;;;1563122;75;828;-56
2022/10/18 02:23:54;;;;;;;;;;;23.50;55.80;;;;;;1564870;74;1943;-56
2022/10/18 02:25:56;;;;;;;;;;;23.50;55.70;;;;;;1564356;75;1129;-56
2022/10/18 02:27:58;;;;;;;;;;;23.50;55.70;;;;;;1555355;75;787;-55
2022/10/18 02:29:59;;;;;;;;;;;23.50;55.70;;;;;;1562242;75;692;-54
2022/10/18 02:32:03;;;;;;;;;;;23.50;55.70;;;;;;1553609;74;713;-53
2022/10/18 02:34:06;;;;;;;;;;;23.50;55.70;;;;;;1554509;75;1569;-57
2022/10/18 02:36:15;;;;;;;;;;;23.50;55.70;;;;;;1556271;75;1890;-55
2022/10/18 02:38:17;;;;;;;;;;;23.50;55.70;;;;;;1555177;74;754;-56
2022/10/18 02:40:19;;;;;;;;;;;23.50;55.60;;;;;;1559250;75;762;-56
2022/10/18 02:42:21;;;;;;;;;;;23.50;55.70;;;;;;1566009;75;739;-55
2022/10/18 02:44:23;;;;;;;;;;;23.50;55.70;;;;;;1564385;75;1932;-56
2022/10/18 02:46:25;;;;;;;;;;;23.40;55.70;;;;;;1562957;74;1143;-55
2022/10/18 02:48:27;;;;;;;;;;;23.30;56.00;;;;;;1563519;75;1538;-55
2022/10/18 02:50:29;;;;;;;;;;;23.30;56.10;;;;;;1573275;75;761;-52
2022/10/18 02:52:31;;;;;;;;;;;23.30;56.10;;;;;;1564735;75;749;-56
2022/10/18 02:54:32;;;;;;;;;;;23.20;56.20;;;;;;1554647;74;787;-55
2022/10/18 02:56:35;;;;;;;;;;;23.20;56.30;;;;;;1560742;75;1133;-55
2022/10/18 02:58:36;;;;;;;;;;;23.20;56.40;;;;;;1562898;75;668;-56
2022/10/18 03:00:38;;;;;;;;;;;23.30;56.50;;;;;;1557640;75;702;-56
2022/10/18 03:02:40;;;;;;;;;;;23.20;56.50;;;;;;1559593;75;1566;-54
2022/10/18 03:04:42;;;;;;;;;;;23.20;56.60;;;;;;1556384;75;1936;-54
2022/10/18 03:06:44;;;;;;;;;;;23.20;56.70;;;;;;1550390;75;1180;-55
2022/10/18 03:08:46;;;;;;;;;;;23.20;56.80;;;;;;1551803;75;703;-56
2022/10/18 03:10:48;;;;;;;;;;;23.20;56.80;;;;;;1550177;75;738;-56
2022/10/18 03:12:50;;;;;;;;;;;23.20;56.80;;;;;;1565414;75;692;-56
2022/10/18 03:14:51;;;;;;;;;;;23.20;57.00;;;;;;1542147;75;745;-56
2022/10/18 03:16:53;;;;;;;;;;;23.20;57.00;;;;;;1549541;75;1571;-55
2022/10/18 03:18:55;;;;;;;;;;;23.20;57.10;;;;;;1546970;75;777;-54
2022/10/18 03:20:57;;;;;;;;;;;23.20;57.10;;;;;;1548834;75;765;-54
2022/10/18 03:22:59;;;;;;;;;;;23.10;57.30;;;;;;1543253;75;745;-55
2022/10/18 03:25:01;;;;;;;;;;;23.10;57.30;;;;;;1550065;75;2082;-55
2022/10/18 03:27:03;;;;;;;;;;;23.10;57.30;;;;;;1545138;76;700;-55
2022/10/18 03:29:04;;;;;;;;;;;23.10;57.30;;;;;;1565874;75;713;-55
2022/10/18 03:31:06;;;;;;;;;;;23.20;57.40;;;;;;1557661;75;1535;-55
2022/10/18 03:33:08;;;;;;;;;;;23.20;57.30;;;;;;1549635;75;762;-52
2022/10/18 03:35:10;;;;;;;;;;;23.10;57.40;;;;;;1551855;75;1131;-56
2022/10/18 03:37:12;;;;;;;;;;;23.20;57.50;;;;;;1541665;75;695;-55
2022/10/18 03:39:14;;;;;;;;;;;23.10;57.40;;;;;;1552950;75;739;-55
2022/10/18 03:41:16;;;;;;;;;;;23.20;57.40;;;;;;1546880;75;719;-54
2022/10/18 03:43:18;;;;;;;;;;;23.20;57.40;;;;;;1547869;75;1940;-55
2022/10/18 03:45:19;;;;;;;;;;;23.10;57.40;;;;;;1544525;75;1580;-54
2022/10/18 03:47:21;;;;;;;;;;;23.10;57.50;;;;;;1554929;76;703;-52
2022/10/18 03:49:23;;;;;;;;;;;23.10;57.50;;;;;;1550174;75;748;-56
2022/10/18 03:51:25;;;;;;;;;;;23.10;57.60;;;;;;1548731;75;720;-55
2022/10/18 03:53:27;;;;;;;;;;;23.10;57.60;;;;;;1550684;75;730;-56
2022/10/18 03:55:29;;;;;;;;;;;23.10;57.60;;;;;;1547708;75;1136;-56
2022/10/18 03:57:31;;;;;;;;;;;23.10;57.60;;;;;;1559633;75;721;-56
2022/10/18 03:59:32;;;;;;;;;;;23.10;57.60;;;;;;1549842;76;1525;-56
2022/10/18 04:01:34;;;;;;;;;;;23.20;57.60;;;;;;1557995;75;775;-56
2022/10/18 04:03:36;;;;;;;;;;;23.10;57.60;;;;;;1561279;75;2096;-56
2022/10/18 04:05:38;;;;;;;;;;;23.20;57.60;;;;;;1550162;75;1186;-56
2022/10/18 04:07:40;;;;;;;;;;;23.10;57.60;;;;;;1549888;74;788;-57
2022/10/18 04:09:42;;;;;;;;;;;23.10;57.60;;;;;;1563247;74;796;-56
2022/10/18 04:11:44;;;;;;;;;;;23.20;57.60;;;;;;1560391;74;662;-56
2022/10/18 04:13:46;;;;;;;;;;;23.10;57.60;;;;;;1568156;74;1414;-55
2022/10/18 04:15:47;;;;;;;;;;;23.20;57.60;;;;;;1562266;74;1112;-56
2022/10/18 04:17:49;;;;;;;;;;;23.20;57.70;;;;;;1558145;74;737;-56
2022/10/18 04:19:51;;;;;;;;;;;23.10;57.70;;;;;;1567439;74;792;-56
2022/10/18 04:21:53;;;;;;;;;;;23.20;57.60;;;;;;1547921;74;708;-56
2022/10/18 04:23:55;;;;;;;;;;;23.20;57.60;;;;;;1550435;74;1962;-56
2022/10/18 04:25:57;;;;;;;;;;;23.20;57.70;;;;;;1540882;74;1134;-56
2022/10/18 04:27:59;;;;;;;;;;;23.10;57.80;;;;;;1560575;74;1515;-56
2022/10/18 04:30:01;;;;;;;;;;;23.10;57.70;;;;;;1553416;74;780;-56
2022/10/18 04:32:03;;;;;;;;;;;23.10;57.70;;;;;;1552606;74;783;-56
2022/10/18 04:34:05;;;;;;;;;;;23.20;57.70;;;;;;1552514;74;875;-56
2022/10/18 04:36:06;;;;;;;;;;;23.20;57.70;;;;;;1550071;74;1198;-56
2022/10/18 04:38:09;;;;;;;;;;;23.10;57.60;;;;;;1563801;74;718;-55
2022/10/18 04:40:11;;;;;;;;;;;23.20;57.70;;;;;;1566396;75;754;-56
2022/10/18 04:42:13;;;;;;;;;;;23.20;57.70;;;;;;1562808;74;1585;-55
2022/10/18 04:44:15;;;;;;;;;;;23.10;57.70;;;;;;1563929;74;1931;-56
2022/10/18 04:46:17;;;;;;;;;;;23.20;57.70;;;;;;1560546;74;1169;-55
2022/10/18 04:48:19;;;;;;;;;;;23.20;57.80;;;;;;1564374;74;720;-55
2022/10/18 04:50:21;;;;;;;;;;;23.20;57.70;;;;;;1557483;74;741;-54
2022/10/18 04:52:23;;;;;;;;;;;23.20;57.60;;;;;;1569580;74;694;-52
2022/10/18 04:54:24;;;;;;;;;;;23.30;57.60;;;;;;1560456;74;1531;-56
2022/10/18 04:56:26;;;;;;;;;;;23.30;57.70;;;;;;1557830;74;1145;-56
2022/10/18 04:58:28;;;;;;;;;;;23.30;57.60;;;;;;1564649;74;785;-55
2022/10/18 05:00:30;;;;;;;;;;;23.30;57.50;;;;;;1558856;74;744;-53
2022/10/18 05:02:32;;;;;;;;;;;23.30;57.40;;;;;;1562484;74;711;-55
2022/10/18 05:04:34;;;;;;;;;;;23.50;57.40;;;;;;1528953;76;1934;-54
2022/10/18 05:06:36;;;;;;;;;;;23.40;57.30;;;;;;1520914;76;1158;-52
2022/10/18 05:08:37;;;;;;;;;;;23.50;57.30;;;;;;1483738;78;1546;-56
2022/10/18 05:10:39;;;;;;;;;;;23.50;57.30;;;;;;1531597;76;714;-56
2022/10/18 05:12:42;;;;;;;;;;;23.50;57.60;;;;;;1527957;76;796;-56
2022/10/18 05:14:44;;;;;;;;;;;23.40;57.60;;;;;;1535452;76;669;-57
2022/10/18 05:16:46;;;;;;;;;;;23.50;57.60;;;;;;1535443;76;1179;-56
2022/10/18 05:18:48;;;;;;;;;;;23.50;57.20;;;;;;1486931;78;732;-56
2022/10/18 05:20:50;;;;;;;;;;;23.60;56.90;;;;;;1547105;74;753;-56
2022/10/18 05:22:52;;;;;;;;;;;23.60;56.60;;;;;;1545939;74;1531;-56
2022/10/18 05:24:53;;;;;;;;;;;23.60;56.30;;;;;;1562407;74;1934;-55
2022/10/18 05:26:55;;;;;;;;;;;23.70;56.30;;;;;;1558314;75;1074;-53
2022/10/18 05:28:57;;;;;;;;;;;23.60;56.20;;;;;;1543422;74;685;-56
2022/10/18 05:31:02;;;;;;;;;;;23.60;56.00;;;;;;1551178;74;770;-54
2022/10/18 05:33:04;;;;;;;;;;;23.70;56.00;;;;;;1552622;74;747;-54
2022/10/18 05:35:06;;;;;;;;;;;23.60;55.90;;;;;;1561130;74;1122;-51
2022/10/18 05:37:08;;;;;;;;;;;23.70;56.10;;;;;;1559974;74;1523;-54
2022/10/18 05:39:10;;;;;;;;;;;23.60;55.70;;;;;;1542330;74;779;-58
2022/10/18 05:41:12;;;;;;;;;;;23.50;55.90;;;;;;1552632;74;723;-58
2022/10/18 05:43:14;;;;;;;;;;;23.40;56.30;;;;;;1550668;74;773;-56
2022/10/18 05:45:16;;;;;;;;;;;23.40;56.70;;;;;;1559593;74;1934;-56
2022/10/18 05:47:18;;;;;;;;;;;23.30;56.80;;;;;;1564902;74;782;-56
2022/10/18 05:49:19;;;;;;;;;;;23.40;56.70;;;;;;1557659;74;767;-54
2022/10/18 05:51:21;;;;;;;;;;;23.50;56.30;;;;;;1558470;74;1524;-53
2022/10/18 05:53:23;;;;;;;;;;;23.60;56.00;;;;;;1555319;76;762;-56
2022/10/18 05:55:25;;;;;;;;;;;23.60;55.90;;;;;;1554259;74;1148;-56
2022/10/18 05:57:27;;;;;;;;;;;23.60;55.90;;;;;;1547742;74;804;-56
2022/10/18 05:59:29;;;;;;;;;;;23.50;56.00;;;;;;1558453;74;721;-56
2022/10/18 06:01:31;;;;;;;;;;;23.50;56.00;;;;;;1561197;74;704;-56
2022/10/18 06:03:33;;;;;;;;;;;23.50;56.00;;;;;;1557645;74;687;-56
2022/10/18 06:05:34;;;;;;;;;;;23.50;56.10;;;;;;1551896;74;1949;-57
2022/10/18 06:07:36;;;;;;;;;;;23.40;56.00;;;;;;1572521;74;1096;-56
2022/10/18 06:09:38;;;;;;;;;;;23.40;56.00;;;;;;1574694;74;712;-57
2022/10/18 06:11:40;;;;;;;;;;;23.40;56.10;;;;;;1551346;74;784;-57
2022/10/18 06:13:45;;;;;;;;;;;23.30;56.10;;;;;;1552778;74;755;-56
2022/10/18 06:15:47;;;;;;;;;;;23.40;56.10;;;;;;1560126;74;1200;-57
2022/10/18 06:17:49;;;;;;;;;;;23.30;56.10;;;;;;1557472;74;654;-57
2022/10/18 06:19:51;;;;;;;;;;;23.30;56.10;;;;;;1552377;74;1501;-56
2022/10/18 06:21:53;;;;;;;;;;;23.30;56.10;;;;;;1556379;74;767;-57
2022/10/18 06:23:56;;;;;;;;;;;23.30;56.20;;;;;;1551060;74;751;-57
2022/10/18 06:25:58;;;;;;;;;;;23.30;55.70;;;;;;1555143;74;1954;-56
2022/10/18 06:28:00;;;;;;;;;;;23.20;55.10;;;;;;1554400;74;776;-57
2022/10/18 06:30:02;;;;;;;;;;;23.20;55.10;;;;;;1554356;74;783;-56
2022/10/18 06:32:04;;;;;;;;;;;23.20;54.80;;;;;;1560124;74;746;-56
2022/10/18 06:34:06;;;;;;;;;;;23.10;55.00;;;;;;1560826;74;1599;-57
2022/10/18 06:36:10;;;;;;;;;;;23.10;54.80;;;;;;1563439;74;1124;-57
2022/10/18 06:38:11;;;;;;;;;;;23.10;54.40;;;;;;1562915;74;800;-57
2022/10/18 06:40:13;;;;;;;;;;;23.10;54.70;;;;;;1556691;74;717;-56
2022/10/18 06:42:15;;;;;;;;;;;23.10;54.40;;;;;;1565024;74;717;-57
2022/10/18 06:44:17;;;;;;;;;;;23.10;54.20;;;;;;1555847;74;1940;-57
2022/10/18 06:46:19;;;;;;;;;;;23.10;54.20;;;;;;1554288;74;1155;-56
2022/10/18 06:48:21;;;;;;;;;;;23.10;53.80;;;;;;1545686;74;1506;-56
2022/10/18 06:50:23;;;;;;;;;;;23.10;53.80;;;;;;1547227;74;702;-57
2022/10/18 06:52:25;;;;;;;;;;;23.20;53.90;;;;;;1552415;74;683;-56
2022/10/18 06:54:27;;;;;;;;;;;23.10;53.60;;;;;;1556182;74;800;-56
2022/10/18 06:56:28;;;;;;;;;;;23.10;53.60;;;;;;1547194;74;1113;-56
2022/10/18 06:58:30;;;;;;;;;;;23.20;53.40;;;;;;1556960;75;783;-57
2022/10/18 07:00:32;;;;;;;;;;;23.20;53.20;;;;;;1570661;74;724;-57
2022/10/18 07:02:34;;;;;;;;;;;23.10;53.10;;;;;;1561886;74;1567;-57
2022/10/18 07:04:36;;;;;;;;;;;23.10;53.00;;;;;;1556837;74;1927;-56
2022/10/18 07:06:38;;;;;;;;;;;23.10;53.10;;;;;;1550480;75;1175;-56
2022/10/18 07:08:40;;;;;;;;;;;23.10;53.10;;;;;;1537460;76;690;-56
2022/10/18 07:10:42;;;;;;;;;;;23.10;53.10;;;;;;1532862;76;737;-56
2022/10/18 07:12:43;;;;;;;;;;;23.10;52.90;;;;;;1534568;76;730;-56
2022/10/18 07:14:45;;;;;;;;;;;23.10;52.70;;;;;;1546551;76;793;-56
2022/10/18 07:16:47;;;;;;;;;;;23.00;52.60;;;;;;1538025;76;1649;-56
2022/10/18 07:18:50;;;;;;;;;;;23.00;52.60;;;;;;1541714;76;814;-57
2022/10/18 07:20:51;;;;;;;;;;;23.00;52.60;;;;;;1545790;76;760;-55
2022/10/18 07:22:56;;;;;;;;;;;23.00;52.60;;;;;;1554313;76;809;-56
2022/10/18 07:24:57;;;;;;;;;;;23.00;52.50;;;;;;1540658;76;1920;-56
2022/10/18 07:26:59;;;;;;;;;;;23.10;52.60;;;;;;1548088;76;1066;-56
2022/10/18 07:29:06;;;;;;;;;;;23.00;52.30;;;;;;1533437;76;689;-56
2022/10/18 07:31:08;;;;;;;;;;;23.10;52.30;;;;;;1535231;76;701;-56
2022/10/18 07:33:10;;;;;;;;;;;23.10;52.20;;;;;;1539731;76;749;-56
2022/10/18 07:35:12;;;;;;;;;;;23.00;51.90;;;;;;1543444;76;1089;-56
2022/10/18 07:37:14;;;;;;;;;;;23.00;52.00;;;;;;1533539;76;705;-57
2022/10/18 07:39:16;;;;;;;;;;;23.00;52.00;;;;;;1551604;76;755;-56
2022/10/18 07:41:18;;;;;;;;;;;23.00;52.10;;;;;;1544789;76;782;-56
2022/10/18 07:43:20;;;;;;;;;;;22.90;52.00;;;;;;1537520;76;1611;-56
2022/10/18 07:45:22;;;;;;;;;;;23.00;52.00;;;;;;1545751;76;1936;-56
2022/10/18 07:47:23;;;;;;;;;;;22.90;52.00;;;;;;1545466;76;790;-56
2022/10/18 07:49:25;;;;;;;;;;;22.90;51.80;;;;;;1544994;76;850;-56
2022/10/18 07:51:29;;;;;;;;;;;22.90;52.00;;;;;;1532780;76;767;-57
2022/10/18 07:53:33;;;;;;;;;;;22.90;52.00;;;;;;1535570;76;2122;-56
2022/10/18 07:55:34;;;;;;;;;;;22.90;52.10;;;;;;1538511;76;1122;-57
2022/10/18 07:57:36;;;;;;;;;;;23.00;51.90;;;;;;1539731;76;1391;-56
2022/10/18 07:59:38;;;;;;;;;;;23.00;51.90;;;;;;1550102;76;725;-56
2022/10/18 08:01:40;;;;;;;;;;;22.90;52.10;;;;;;1541118;76;763;-56
2022/10/18 08:03:42;;;;;;;;;;;22.90;52.20;;;;;;1539227;76;655;-56
2022/10/18 08:05:44;;;;;;;;;;;23.00;52.20;;;;;;1543853;76;1916;-57
2022/10/18 08:07:46;;;;;;;;;;;22.90;52.30;;;;;;1518276;76;1083;-57
2022/10/18 08:09:48;;;;;;;;;;;22.90;52.30;;;;;;1558640;74;804;-57
2022/10/18 08:11:49;;;;;;;;;;;23.00;52.20;;;;;;1570792;74;1506;-56
2022/10/18 08:13:52;;;;;;;;;;;22.90;52.10;;;;;;1560582;74;730;-57
2022/10/18 08:15:55;;;;;;;;;;;23.00;52.10;;;;;;1561095;74;1181;-57
2022/10/18 08:17:57;;;;;;;;;;;23.00;52.10;;;;;;1555245;74;1060;-56
2022/10/18 08:19:59;;;;;;;;;;;23.00;51.90;;;;;;1567301;74;736;-56
2022/10/18 08:22:01;;;;;;;;;;;22.90;51.80;;;;;;1563266;74;800;-56
2022/10/18 08:24:03;;;;;;;;;;;22.90;51.70;;;;;;1556161;74;786;-56
2022/10/18 08:26:05;;;;;;;;;;;22.90;51.80;;;;;;1562564;74;1940;-56
2022/10/18 08:28:07;;;;;;;;;;;22.90;51.80;;;;;;1566707;74;810;-57
2022/10/18 08:30:09;;;;;;;;;;;22.90;51.80;;;;;;1564516;75;808;-57
2022/10/18 08:32:12;;;;;;;;;;;23.00;51.70;;;;;;1566340;74;792;-56
2022/10/18 08:34:14;;;;;;;;;;;23.00;51.60;;;;;;1556323;74;742;-56
2022/10/18 08:36:16;;;;;;;;;;;23.00;51.70;;;;;;1551263;74;1123;-56
2022/10/18 08:38:18;;;;;;;;;;;23.00;51.70;;;;;;1567659;74;691;-56
2022/10/18 08:40:20;;;;;;;;;;;23.00;51.80;;;;;;1566680;75;1537;-56
2022/10/18 08:42:38;;;;;;;;;;;23.10;51.90;;;;;;1572160;74;721;-57
2022/10/18 08:44:42;;;;;;;;;;;23.10;51.80;;;;;;1560447;74;872;-56
2022/10/18 08:46:45;;;;;;;;;;;23.10;51.70;;;;;;1565139;74;1977;-56
2022/10/18 08:48:48;;;;;;;;;;;23.10;51.70;;;;;;1554321;74;1784;-57
2022/10/18 08:50:50;;;;;;;;;;;23.10;51.70;;;;;;1551705;74;791;-57
2022/10/18 08:53:03;;;;;;;;;;;23.10;51.30;;;;;;1558076;74;687;-57
2022/10/18 08:55:06;;;;;;;;;;;23.10;51.30;;;;;;1563424;75;1673;-56
2022/10/18 08:57:10;;;;;;;;;;;23.00;51.40;;;;;;1559784;74;1945;-56
2022/10/18 08:59:12;;;;;;;;;;;23.00;51.40;;;;;;1559895;74;687;-57
2022/10/18 09:01:19;;;;;;;;;;;23.00;51.40;;;;;;1556987;74;768;-56
2022/10/18 09:03:31;;;;;;;;;;;23.00;51.50;;;;;;1552028;74;774;-56
2022/10/18 09:05:51;;;;;;;;;;;23.00;51.40;;;;;;1551892;74;1997;-57
2022/10/18 09:07:54;;;;;;;;;;;22.90;51.50;;;;;;1564397;74;1566;-56
2022/10/18 09:10:01;;;;;;;;;;;22.90;51.30;;;;;;1555757;74;1925;-56
2022/10/18 09:12:04;;;;;;;;;;;22.80;51.20;;;;;;1572828;74;702;-57
2022/10/18 09:14:26;;;;;;;;;;;22.80;51.40;;;;;;1562241;74;808;-57
2022/10/18 09:16:29;;;;;;;;;;;22.90;51.50;;;;;;1562677;74;1192;-56
2022/10/18 09:18:33;;;;;;;;;;;22.90;51.50;;;;;;1549162;74;1821;-56
2022/10/18 09:20:52;;;;;;;;;;;23.00;51.40;;;;;;1567302;74;768;-56
2022/10/18 09:23:13;;;;;;;;;;;23.00;51.20;;;;;;1569499;74;1538;-56
2022/10/18 09:25:17;;;;;;;;;;;23.10;51.30;;;;;;1473552;78;1959;-57
2022/10/18 09:27:20;;;;;;;;;;;23.10;51.30;;;;;;1475510;80;718;-56
2022/10/18 09:29:23;;;;;;;;;;;23.10;51.30;;;;;;1442073;81;753;-54
2022/10/18 09:31:33;;;;;;;;;;;23.20;51.10;;;;;;1492376;77;869;-55
2022/10/18 09:33:38;;;;;;;;;;;23.20;51.00;;;;;;1514531;77;1429;-56
2022/10/18 09:35:43;;;;;;;;;;;23.20;51.00;;;;;;1498406;77;1577;-55
2022/10/18 09:37:45;;;;;;;;;;;23.30;51.10;;;;;;1570554;74;734;-57
2022/10/18 09:39:47;;;;;;;;;;;23.30;51.30;;;;;;1548926;74;719;-57
2022/10/18 09:41:50;;;;;;;;;;;23.30;51.80;;;;;;1562132;74;736;-57
2022/10/18 09:44:00;;;;;;;;;;;23.20;52.60;;;;;;1573992;74;890;-57
2022/10/18 09:46:03;;;;;;;;;;;23.20;53.90;;;;;;1562652;74;1940;-56
2022/10/18 09:48:07;;;;;;;;;;;23.10;54.00;;;;;;1569401;74;750;-56
2022/10/18 09:50:17;;;;;;;;;;;23.10;54.20;;;;;;1558288;74;1507;-56
2022/10/18 09:52:19;;;;;;;;;;;23.10;54.40;;;;;;1559078;74;780;-54
2022/10/18 09:54:31;;;;;;;;;;;23.10;54.70;;;;;;1560796;75;754;-56
2022/10/18 09:56:35;;;;;;;;;;;23.20;54.70;;;;;;1553816;74;1155;-56
2022/10/18 09:58:41;;;;;;;;;;;23.20;54.70;;;;;;1560028;74;806;-57
2022/10/18 10:00:44;;;;;;;;;;;23.20;54.70;;;;;;1550793;74;738;-54
2022/10/18 10:02:46;;;;;;;;;;;23.30;54.70;;;;;;1570763;74;719;-53
2022/10/18 10:04:49;;;;;;;;;;;23.30;54.40;;;;;;1561062;74;1536;-56
2022/10/18 10:06:52;;;;;;;;;;;23.30;54.20;;;;;;1553468;74;1937;-53
2022/10/18 10:08:55;;;;;;;;;;;23.40;54.00;;;;;;1550141;74;1722;-57
2022/10/18 10:10:57;;;;;;;;;;;23.50;54.00;;;;;;1536858;76;870;-57
2022/10/18 10:13:03;;;;;;;;;;;23.50;54.10;;;;;;1500386;77;722;-57
2022/10/18 10:15:08;;;;;;;;;;;23.50;54.00;;;;;;1512231;77;1192;-57
2022/10/18 10:17:21;;;;;;;;;;;23.50;54.10;;;;;;1511485;77;780;-58
2022/10/18 10:19:27;;;;;;;;;;;23.50;54.30;;;;;;1512606;77;1660;-57
2022/10/18 10:21:29;;;;;;;;;;;23.40;54.20;;;;;;1528272;76;742;-56
2022/10/18 10:23:49;;;;;;;;;;;23.50;54.20;;;;;;1532450;76;721;-57
2022/10/18 10:25:51;;;;;;;;;;;23.50;54.20;;;;;;1518941;76;1944;-57
2022/10/18 10:27:53;;;;;;;;;;;23.50;54.00;;;;;;1528714;76;731;-58
2022/10/18 10:29:56;;;;;;;;;;;23.50;53.90;;;;;;1527671;76;714;-57
2022/10/18 10:32:04;;;;;;;;;;;23.60;53.80;;;;;;1500653;77;1437;-57
2022/10/18 10:34:07;;;;;;;;;;;23.60;53.80;;;;;;1495411;77;714;-56
2022/10/18 10:36:19;;;;;;;;;;;23.60;53.70;;;;;;1519010;77;1686;-56
2022/10/18 10:38:24;;;;;;;;;;;23.60;53.60;;;;;;1511187;79;796;-56
2022/10/18 10:40:27;;;;;;;;;;;23.70;53.60;;;;;;1520194;77;840;-56
2022/10/18 10:42:28;;;;;;;;;;;23.70;53.60;;;;;;1515752;77;757;-56
2022/10/18 10:44:31;;;;;;;;;;;23.70;53.60;;;;;;1510835;77;768;-57
2022/10/18 10:46:34;;;;;;;;;;;23.70;53.50;;;;;;1513339;78;1964;-57
2022/10/18 10:48:40;;;;;;;;;;;23.70;53.50;;;;;;1511312;77;796;-57
2022/10/18 10:50:53;;;;;;;;;;;23.80;53.40;;;;;;1510053;78;715;-57
2022/10/18 10:52:55;;;;;;;;;;;23.80;53.30;;;;;;1515020;77;742;-57
2022/10/18 10:54:57;;;;;;;;;;;23.70;53.30;;;;;;1510194;78;716;-57
2022/10/18 10:57:00;;;;;;;;;;;23.80;53.40;;;;;;1512508;77;1077;-57
2022/10/18 10:59:09;;;;;;;;;;;23.80;53.40;;;;;;1536783;77;689;-57
2022/10/18 11:01:24;;;;;;;;;;;23.70;53.40;;;;;;1535992;77;1543;-57
2022/10/18 11:03:26;;;;;;;;;;;23.80;53.40;;;;;;1536184;77;712;-57
2022/10/18 11:05:31;;;;;;;;;;;23.70;53.40;;;;;;1526192;76;1124;-57
2022/10/18 11:07:36;;;;;;;;;;;23.70;53.50;;;;;;1525790;76;1913;-57
2022/10/18 11:09:52;;;;;;;;;;;23.70;53.60;;;;;;1532713;76;1060;-57
2022/10/18 11:12:01;;;;;;;;;;;23.70;53.60;;;;;;1526231;76;756;-57
2022/10/18 11:14:04;;;;;;;;;;;23.70;53.60;;;;;;1524744;76;1808;-57
2022/10/18 11:16:08;;;;;;;;;;;23.60;53.60;;;;;;1518822;76;1191;-57
2022/10/18 11:18:16;;;;;;;;;;;23.70;53.80;;;;;;1529424;76;1948;-57
2022/10/18 11:20:28;;;;;;;;;;;23.70;53.80;;;;;;1524769;77;795;-57
2022/10/18 11:22:31;;;;;;;;;;;23.70;53.80;;;;;;1534963;76;707;-57
2022/10/18 11:24:34;;;;;;;;;;;23.70;53.80;;;;;;1523664;76;744;-56
2022/10/18 11:26:37;;;;;;;;;;;23.70;53.80;;;;;;1516981;76;1954;-56
2022/10/18 11:28:46;;;;;;;;;;;23.70;53.80;;;;;;1518411;78;1570;-57
2022/10/18 11:30:52;;;;;;;;;;;23.60;53.80;;;;;;1518746;78;1907;-57
2022/10/18 11:33:06;;;;;;;;;;;23.60;53.80;;;;;;1520950;78;1684;-56
2022/10/18 11:35:10;;;;;;;;;;;23.60;53.90;;;;;;1513032;78;1964;-57
2022/10/18 11:37:32;;;;;;;;;;;23.70;54.00;;;;;;1510508;78;677;-57
2022/10/18 11:39:35;;;;;;;;;;;23.60;53.90;;;;;;1516739;78;1735;-57
2022/10/18 11:41:42;;;;;;;;;;;23.60;53.90;;;;;;1504020;78;752;-57
2022/10/18 11:43:45;;;;;;;;;;;23.60;53.90;;;;;;1520459;76;1615;-57
2022/10/18 11:45:52;;;;;;;;;;;23.60;53.90;;;;;;1523699;76;1115;-56
2022/10/18 11:47:55;;;;;;;;;;;23.60;53.90;;;;;;1491611;77;2110;-60
2022/10/18 11:49:59;;;;;;;;;;;23.60;54.00;;;;;;1515428;76;713;-57
2022/10/18 11:52:08;;;;;;;;;;;23.70;54.00;;;;;;1532168;76;777;-57
2022/10/18 11:54:13;;;;;;;;;;;23.70;53.80;;;;;;1530557;77;712;-57
2022/10/18 11:56:25;;;;;;;;;;;23.70;53.80;;;;;;1518331;76;1144;-57
2022/10/18 11:58:35;;;;;;;;;;;23.70;53.80;;;;;;1513586;77;723;-56
2022/10/18 12:00:39;;;;;;;;;;;23.70;53.70;;;;;;1532593;76;752;-53
2022/10/18 12:02:45;;;;;;;;;;;23.70;53.70;;;;;;1523939;76;1671;-53
2022/10/18 12:04:49;;;;;;;;;;;23.70;53.70;;;;;;1517750;76;710;-60
2022/10/18 12:06:51;;;;;;;;;;;23.70;53.70;;;;;;1495117;78;1938;-57
2022/10/18 12:09:01;;;;;;;;;;;23.70;53.60;;;;;;1488782;78;993;-57
2022/10/18 12:11:04;;;;;;;;;;;23.90;53.50;;;;;;1473965;78;1880;-57
2022/10/18 12:13:07;;;;;;;;;;;23.90;53.40;;;;;;1489751;78;2012;-57
2022/10/18 12:15:10;;;;;;;;;;;23.90;53.20;;;;;;1500255;77;1185;-57
2022/10/18 12:17:14;;;;;;;;;;;23.90;53.20;;;;;;1476928;78;1860;-57